Time;durP1;ratioP1;P1;durP2;ratioP2;P2;SDS_P1;SDS_P2;PMS_P1;PMS_P2;Temp;Humidity;BMP_temperature;BMP_pressure;BME280_temperature;BME280_humidity;BME280_pressure;Samples;Min_cycle;Max_cycle;Signal;HPM_P1;HPM_P2
2022/03/08 12:38:02;;;;;;;5.67;3.67;;;;;;;3.03;61.61;93944.72;2194214;54;52425;-86
2022/03/08 12:43:07;;;;;;;5.20;2.97;;;;;;;3.23;57.01;93933.78;2625276;38;20610;-86
2022/03/08 12:48:39;;;;;;;5.17;3.00;;;;;;;2.25;62.86;93905.16;2628636;54;20190;-87
2022/03/08 12:56:35;;;;;;;2.30;2.20;;;;;;;5.05;62.58;94221.09;2609780;54;20458;-80
2022/03/08 13:05:06;;;;;;;2.30;2.17;;;;;;;4.30;61.48;94265.94;2612170;54;20199;-79
2022/03/08 13:07:35;;;;;;;3.93;2.77;;;;;;;4.04;58.93;94270.97;2617526;54;20167;-81
2022/03/08 13:10:03;;;;;;;2.50;2.30;;;;;;;3.28;62.81;94100.53;2617269;54;20149;-83
2022/03/08 13:13:08;;;;;;;3.77;3.57;;;;;;;4.21;63.56;94278.84;2617496;46;20161;-80
2022/03/08 13:15:48;;;;;;;2.33;2.20;;;;;;;3.89;67.77;94195.97;2617500;47;20156;-82
2022/03/08 13:18:23;;;;;;;7.20;3.70;;;;;;;3.97;61.32;94223.66;2617479;47;20523;-81
2022/03/08 13:20:53;;;;;;;3.03;2.90;;;;;;;3.96;65.56;94236.97;2620722;54;20152;-85
2022/03/08 13:23:24;;;;;;;5.43;2.47;;;;;;;4.65;63.95;94308.31;2620043;39;20628;-84
2022/03/08 13:25:54;;;;;;;2.30;2.20;;;;;;;2.09;63.77;93964.44;2620544;54;20167;-87
2022/03/08 13:28:32;;;;;;;2.90;2.77;;;;;;;3.50;67.79;94109.31;2619705;39;20544;-85
2022/03/08 13:31:07;;;;;;;4.83;1.87;;;;;;;2.87;63.39;94002.66;2618841;47;20649;-86
2022/03/08 13:33:37;;;;;;;3.93;3.73;;;;;;;4.36;65.44;94212.25;2618749;54;20167;-78
2022/03/08 13:36:08;;;;;;;3.97;3.73;;;;;;;2.59;61.80;94004.75;2617297;47;20157;-84
2022/03/08 13:38:39;;;;;;;2.43;2.33;;;;;;;4.18;61.39;94249.25;2617173;47;20152;-83
2022/03/08 13:41:11;;;;;;;2.70;2.60;;;;;;;3.04;63.91;94118.88;2616939;54;20268;-78
2022/03/08 13:43:42;;;;;;;2.90;2.70;;;;;;;4.29;68.52;94216.84;2617145;47;20145;-82
2022/03/08 13:46:19;;;;;;;2.97;2.83;;;;;;;4.85;62.57;94291.03;2617186;47;20160;-79
2022/03/08 13:48:49;;;;;;;2.03;1.97;;;;;;;3.63;61.02;94124.66;2617324;47;20145;-82
2022/03/08 13:51:18;;;;;;;2.10;2.07;;;;;;;4.37;61.63;94236.88;2622166;39;20581;-81
2022/03/08 13:53:47;;;;;;;4.83;4.30;;;;;;;3.74;61.71;94216.22;2617782;54;20277;-78
2022/03/08 13:56:16;;;;;;;3.23;2.97;;;;;;;4.04;65.66;94287.06;2615704;54;20208;-81
2022/03/08 13:58:45;;;;;;;2.30;2.13;;;;;;;4.52;67.23;94271.91;2616473;46;20160;-84
2022/03/08 14:04:29;;;;;;;3.23;2.90;;;;;;;3.84;68.10;94127.06;2617039;47;20268;-82
2022/03/08 14:07:00;;;;;;;5.30;3.47;;;;;;;4.89;66.40;94182.53;2617065;54;20156;-78
2022/03/08 14:16:25;;;;;;;4.83;3.53;;;;;;;4.52;64.62;94132.41;2616126;47;20249;-79
2022/03/08 14:22:10;;;;;;;3.00;2.80;;;;;;;5.84;63.40;94273.09;2616530;46;20117;-81
2022/03/08 14:24:39;;;;;;;4.73;3.37;;;;;;;4.81;64.28;94125.31;2617755;47;20156;-82
2022/03/08 14:27:14;;;;;;;2.00;1.63;;;;;;;5.05;59.09;94288.47;2616201;47;20163;-82
2022/03/08 14:29:44;;;;;;;3.37;2.80;;;;;;;4.60;62.15;94275.84;2617284;47;20164;-77
2022/03/08 14:32:19;;;;;;;2.13;2.03;;;;;;;4.86;67.55;94223.06;2620885;54;20164;-84
2022/03/08 14:34:48;;;;;;;3.57;3.20;;;;;;;4.80;62.89;94248.03;2621005;47;20140;-86
2022/03/08 14:37:20;;;;;;;3.13;3.03;;;;;;;1.18;59.31;93903.75;2623911;54;20149;-84
2022/03/08 14:39:53;;;;;;;2.63;2.43;;;;;;;1.03;62.38;93930.13;2623586;47;20211;-84
2022/03/08 15:25:54;;;;;;;3.57;2.20;;;;;;;1.32;63.03;94238.56;2619776;47;20141;-84
2022/03/08 15:28:24;;;;;;;3.23;3.03;;;;;;;0.26;66.89;94072.63;2616371;46;20144;-83
2022/03/08 15:30:58;;;;;;;3.10;3.00;;;;;;;0.70;68.55;94041.84;2615933;47;20153;-82
2022/03/08 15:33:36;;;;;;;1.33;1.33;;;;;;;0.50;61.69;94074.09;2616831;54;20176;-83
2022/03/08 15:36:05;;;;;;;0.90;0.90;;;;;;;1.48;63.86;94316.94;2618933;47;20233;-83
2022/03/08 15:39:00;;;;;;;3.00;2.17;;;;;;;-0.13;64.47;94189.19;2618822;47;20141;-82
2022/03/08 15:41:39;;;;;;;1.50;1.50;;;;;;;0.29;70.58;94138.25;2616966;47;20164;-82
2022/03/08 15:44:08;;;;;;;3.57;3.43;;;;;;;2.25;67.06;94318.69;2617563;54;20260;-77
2022/03/08 15:46:37;;;;;;;2.77;2.57;;;;;;;2.52;67.25;94299.28;2615655;47;20160;-78
2022/03/08 15:49:10;;;;;;;1.73;1.73;;;;;;;2.41;65.72;94320.34;2617038;54;20164;-80
2022/03/08 15:51:39;;;;;;;2.03;1.93;;;;;;;2.25;64.93;94279.56;2617257;47;20160;-79
2022/03/08 15:54:10;;;;;;;4.77;4.47;;;;;;;2.53;72.31;94225.25;2617460;47;20184;-82
2022/03/08 15:56:40;;;;;;;4.40;3.23;;;;;;;1.96;63.19;94210.91;2618754;31;20675;-85
2022/03/08 16:02:35;;;;;;;2.47;2.37;;;;;;;0.93;65.68;94224.38;2614066;47;20230;-81
2022/03/08 16:05:04;;;;;;;1.90;1.90;;;;;;;1.40;63.66;94343.00;2616736;47;20188;-82
2022/03/08 16:07:35;;;;;;;1.27;1.27;;;;;;;-0.40;67.11;94133.91;2615689;54;20173;-84
2022/03/08 16:10:07;;;;;;;2.30;2.23;;;;;;;0.28;67.78;94287.19;2617085;47;20157;-78
2022/03/08 16:12:39;;;;;;;3.33;2.63;;;;;;;0.15;69.46;94232.03;2616343;47;20789;-80
2022/03/08 16:15:09;;;;;;;2.87;2.73;;;;;;;1.78;69.79;94297.13;2616488;54;20171;-77
2022/03/08 16:17:44;;;;;;;2.93;2.73;;;;;;;2.21;65.60;94351.97;2616764;47;20161;-82
2022/03/08 16:20:15;;;;;;;1.97;1.93;;;;;;;0.31;61.59;94216.34;2616672;47;20153;-81
2022/03/08 16:23:08;;;;;;;;;;;;;;;;;;;;;
2022/03/08 16:28:44;;;;;;;3.15;2.78;;;;;;;0.57;68.45;94194.97;2613200;47;20532;-82
2022/03/08 16:31:13;;;;;;;2.53;2.47;;;;;;;2.17;65.15;94363.66;2615442;39;20528;-84
2022/03/08 16:34:00;;;;;;;2.80;2.70;;;;;;;1.04;65.24;94163.03;2614448;31;20739;-84
2022/03/08 16:36:36;;;;;;;3.27;3.17;;;;;;;1.47;61.98;94153.63;2616758;39;20640;-84
2022/03/08 16:39:05;;;;;;;2.33;2.23;;;;;;;2.63;67.78;94337.63;2615905;47;20289;-84
2022/03/08 16:41:37;;;;;;;2.57;2.47;;;;;;;1.52;63.91;94208.34;2617482;47;20148;-84
2022/03/08 16:44:06;;;;;;;2.47;2.30;;;;;;;2.17;70.89;94352.47;2617214;54;20187;-72
2022/03/08 16:46:34;;;;;;;1.23;1.23;;;;;;;2.85;67.11;94392.03;2616600;47;20224;-78
2022/03/08 16:49:03;;;;;;;1.37;1.07;;;;;;;1.41;61.85;94315.84;2617589;46;20145;-80
2022/03/08 16:51:32;;;;;;;1.70;1.17;;;;;;;1.11;65.85;94384.44;2617778;54;20153;-81
2022/03/08 16:54:01;;;;;;;1.97;1.97;;;;;;;-0.23;66.94;94344.41;2617724;54;20145;-81
2022/03/08 16:56:30;;;;;;;0.97;0.97;;;;;;;1.17;68.54;94412.00;2617698;54;20160;-80
2022/03/08 16:59:01;;;;;;;0.87;0.87;;;;;;;1.17;67.60;94409.94;2617408;47;20152;-84
2022/03/08 17:01:30;;;;;;;1.93;1.83;;;;;;;1.25;66.60;94388.09;2619322;39;20562;-77
2022/03/08 17:03:58;;;;;;;1.83;1.83;;;;;;;1.26;64.60;94392.34;2617025;47;20264;-77
2022/03/08 17:06:27;;;;;;;2.30;2.23;;;;;;;1.32;67.84;94392.03;2617577;47;20223;-77
2022/03/08 17:08:56;;;;;;;1.60;1.60;;;;;;;1.73;67.07;94393.16;2617480;47;20157;-77
2022/03/08 17:11:24;;;;;;;1.60;1.60;;;;;;;0.83;64.58;94393.78;2617314;47;20145;-76
2022/03/08 17:13:53;;;;;;;1.07;1.07;;;;;;;0.94;65.65;94418.22;2617684;54;20146;-76
2022/03/08 17:16:24;;;;;;;1.97;1.87;;;;;;;0.60;63.82;94423.03;2617638;54;20703;-76
2022/03/08 17:18:54;;;;;;;2.47;2.37;;;;;;;1.13;71.91;94423.59;2617832;47;20269;-77
2022/03/08 17:21:23;;;;;;;7.03;5.97;;;;;;;1.61;68.15;94416.81;2617315;47;20403;-75
2022/03/08 17:23:53;;;;;;;4.33;3.73;;;;;;;2.16;66.36;94429.25;2617603;47;20149;-77
2022/03/08 17:26:21;;;;;;;3.63;2.10;;;;;;;1.98;61.27;94426.06;2616631;47;20148;-75
2022/03/08 17:28:50;;;;;;;2.57;2.37;;;;;;;2.09;62.81;94422.56;2616440;47;20155;-77
2022/03/08 17:31:19;;;;;;;8.65;5.05;;;;;;;1.62;62.35;94432.25;2616928;47;20380;-81
2022/03/08 17:33:50;;;;;;;2.13;2.07;;;;;;;1.17;64.41;94401.56;2617678;47;20269;-78
2022/03/08 17:36:18;;;;;;;3.93;3.83;;;;;;;2.36;68.19;94433.22;2618315;54;20289;-81
2022/03/08 17:38:47;;;;;;;2.10;2.00;;;;;;;3.05;65.83;94434.41;2614913;54;20165;-79
2022/03/08 17:41:16;;;;;;;1.70;1.60;;;;;;;1.48;61.61;94437.69;2617289;47;20237;-78
2022/03/08 17:43:45;;;;;;;1.50;1.50;;;;;;;1.26;64.75;94428.63;2617193;54;20172;-77
2022/03/08 17:46:15;;;;;;;2.17;2.17;;;;;;;1.31;62.77;94435.19;2617477;47;20152;-79
2022/03/08 17:48:45;;;;;;;0.87;0.87;;;;;;;1.91;65.55;94440.28;2617560;54;20157;-77
2022/03/08 17:51:16;;;;;;;2.67;2.53;;;;;;;1.42;64.97;94375.91;2617862;47;20205;-75
2022/03/08 17:53:47;;;;;;;1.40;1.40;;;;;;;2.33;62.93;94444.88;2617903;54;20141;-76
2022/03/08 17:56:16;;;;;;;3.03;2.93;;;;;;;2.76;66.89;94403.38;2617880;47;20161;-75
2022/03/08 17:58:44;;;;;;;3.67;3.33;;;;;;;2.79;62.03;94388.16;2618236;39;20685;-78
2022/03/08 18:01:15;;;;;;;1.67;1.20;;;;;;;1.01;58.67;94220.00;2617847;47;20758;-75
2022/03/08 18:03:51;;;;;;;3.60;1.37;;;;;;;1.19;60.34;94309.63;2617812;47;20145;-75
2022/03/08 18:06:23;;;;;;;3.33;2.90;;;;;;;1.63;62.46;94428.84;2615476;47;20172;-76
2022/03/08 18:08:51;;;;;;;3.63;3.53;;;;;;;2.06;65.58;94437.72;2616607;47;20157;-77
2022/03/08 18:11:21;;;;;;;3.63;3.43;;;;;;;2.26;69.16;94336.91;2616828;54;20165;-77
2022/03/08 18:13:51;;;;;;;2.73;2.63;;;;;;;1.96;61.28;94441.97;2616070;54;20149;-77
2022/03/08 18:16:20;;;;;;;1.60;1.50;;;;;;;2.69;61.38;94430.25;2614330;47;20277;-77
2022/03/08 18:18:49;;;;;;;4.63;3.97;;;;;;;3.62;64.19;94431.94;2615108;54;20676;-77
2022/03/08 18:21:18;;;;;;;2.60;2.43;;;;;;;2.57;57.23;94384.09;2614974;54;20187;-77
2022/03/08 18:23:49;;;;;;;0.73;0.73;;;;;;;2.20;55.39;94431.53;2616045;54;20156;-77
2022/03/08 18:26:18;;;;;;;0.90;0.90;;;;;;;2.48;59.75;94430.41;2615532;54;20252;-76
2022/03/08 18:28:47;;;;;;;3.47;2.37;;;;;;;2.53;60.55;94404.16;2615185;47;20184;-78
2022/03/08 18:31:15;;;;;;;3.63;3.43;;;;;;;2.83;62.77;94407.97;2616252;47;20153;-77
2022/03/08 18:33:44;;;;;;;1.87;1.87;;;;;;;1.54;55.91;94382.22;2616116;47;20155;-78
2022/03/08 18:36:14;;;;;;;1.77;1.67;;;;;;;1.39;63.91;94428.06;2616002;54;20141;-77
2022/03/08 18:38:43;;;;;;;3.40;1.73;;;;;;;1.45;67.13;94443.72;2615960;54;20212;-77
2022/03/08 18:41:14;;;;;;;6.63;2.67;;;;;;;2.34;65.27;94443.56;2615848;54;20273;-76
2022/03/08 18:43:44;;;;;;;1.50;1.50;;;;;;;1.55;57.22;94435.97;2615344;47;20252;-79
2022/03/08 18:46:12;;;;;;;0.70;0.70;;;;;;;1.16;61.51;94436.34;2615640;47;20164;-77
2022/03/08 18:48:41;;;;;;;3.03;2.83;;;;;;;0.20;63.10;94259.56;2615539;54;20164;-80
2022/03/08 18:51:10;;;;;;;1.97;1.87;;;;;;;1.31;61.77;94357.06;2615529;54;20161;-77
2022/03/08 18:53:39;;;;;;;0.93;0.93;;;;;;;1.23;64.05;94353.81;2615462;47;20376;-80
2022/03/08 18:56:08;;;;;;;1.33;1.33;;;;;;;1.89;63.21;94401.78;2615469;54;20164;-80
2022/03/08 18:58:40;;;;;;;4.47;4.07;;;;;;;2.46;65.00;94445.00;2615193;39;20796;-80
2022/03/08 19:01:08;;;;;;;1.43;1.37;;;;;;;0.96;59.11;94345.81;2614907;52;20244;-80
2022/03/08 19:03:38;;;;;;;8.33;2.87;;;;;;;1.23;57.89;94443.06;2615530;47;20963;-80
2022/03/08 19:06:07;;;;;;;6.60;3.03;;;;;;;0.56;62.39;94339.16;2615935;54;20170;-80
2022/03/08 19:08:36;;;;;;;1.10;1.10;;;;;;;1.05;66.16;94421.06;2615492;54;20160;-80
2022/03/08 19:11:06;;;;;;;1.67;1.57;;;;;;;1.96;65.99;94445.50;2615690;54;20133;-79
2022/03/08 19:13:36;;;;;;;1.77;1.70;;;;;;;1.34;59.50;94417.25;2615851;47;20145;-80
2022/03/08 19:16:07;;;;;;;2.73;2.63;;;;;;;1.68;67.47;94424.97;2615539;47;20141;-79
2022/03/08 19:18:36;;;;;;;2.30;2.20;;;;;;;1.06;63.29;94446.88;2615651;54;20156;-80
2022/03/08 19:21:05;;;;;;;5.50;1.87;;;;;;;1.42;65.49;94443.59;2615387;54;20157;-81
2022/03/08 19:23:34;;;;;;;2.00;1.90;;;;;;;0.39;63.51;94375.66;2615768;54;20577;-78
2022/03/08 19:26:03;;;;;;;1.80;1.77;;;;;;;0.22;59.64;94401.00;2615368;47;20282;-80
2022/03/08 19:28:31;;;;;;;1.83;1.83;;;;;;;-0.24;62.25;94404.88;2615276;54;20171;-80
2022/03/08 19:31:00;;;;;;;0.93;0.93;;;;;;;0.35;62.50;94450.59;2615359;47;20156;-77
2022/03/08 19:33:32;;;;;;;1.20;1.20;;;;;;;0.55;63.88;94409.41;2615230;47;20161;-84
2022/03/08 19:36:02;;;;;;;4.13;3.70;;;;;;;0.20;67.84;94417.56;2614246;47;20396;-78
2022/03/08 19:38:32;;;;;;;1.10;1.10;;;;;;;-1.33;64.07;94230.56;2615576;54;20691;-79
2022/03/08 19:41:01;;;;;;;1.43;1.43;;;;;;;0.32;62.89;94444.16;2615399;47;20153;-78
2022/03/08 19:43:31;;;;;;;1.35;1.33;;;;;;;-0.33;65.11;94399.38;2615430;47;20399;-80
2022/03/08 19:45:59;;;;;;;0.50;0.50;;;;;;;-0.53;64.09;94443.94;2615483;47;20204;-81
2022/03/08 19:48:31;;;;;;;3.80;1.87;;;;;;;-0.74;66.63;94433.47;2615503;54;20156;-80
2022/03/08 19:54:24;;;;;;;1.43;1.33;;;;;;;-1.39;68.69;94261.44;2614385;47;20189;-77
2022/03/08 19:56:53;;;;;;;9.90;4.65;;;;;;;-0.17;70.66;94323.28;2614481;54;20404;-79
2022/03/08 19:59:22;;;;;;;1.90;1.83;;;;;;;1.43;68.03;94452.69;2614839;47;20175;-78
2022/03/08 20:01:50;;;;;;;2.07;2.07;;;;;;;2.24;64.04;94465.31;2615366;39;20575;-78
2022/03/08 20:04:24;;;;;;;1.40;1.40;;;;;;;1.72;62.48;94432.84;2612676;47;20188;-76
2022/03/08 20:06:54;;;;;;;2.53;2.40;;;;;;;2.41;66.33;94451.69;2614040;54;20148;-78
2022/03/08 20:09:23;;;;;;;3.60;3.03;;;;;;;2.57;66.46;94407.19;2614693;54;20160;-77
2022/03/08 20:11:52;;;;;;;6.63;2.07;;;;;;;3.46;70.30;94381.41;2614797;47;20152;-78
2022/03/08 20:14:20;;;;;;;2.60;2.50;;;;;;;3.63;60.19;94446.69;2616026;54;20153;-77
2022/03/08 20:16:49;;;;;;;3.10;2.43;;;;;;;4.41;63.85;94449.41;2615668;54;20697;-78
2022/03/08 20:19:18;;;;;;;2.37;2.13;;;;;;;4.47;58.30;94438.53;2615599;47;20691;-80
2022/03/08 20:21:49;;;;;;;5.10;4.57;;;;;;;4.55;58.34;94445.28;2616258;54;20209;-81
2022/03/08 20:24:18;;;;;;;2.93;2.77;;;;;;;4.16;57.36;94439.75;2616256;47;20715;-80
2022/03/08 20:26:47;;;;;;;6.50;3.07;;;;;;;4.28;59.77;94445.97;2615966;47;20153;-80
2022/03/08 20:29:16;;;;;;;2.67;2.47;;;;;;;0.96;55.26;94285.22;2615835;47;20153;-79
2022/03/08 20:31:45;;;;;;;5.55;4.80;;;;;;;1.40;59.46;94319.97;2615448;47;20392;-78
2022/03/08 20:34:14;;;;;;;4.87;4.23;;;;;;;1.92;61.39;94394.25;2614829;47;20459;-77
2022/03/08 20:36:43;;;;;;;2.27;2.17;;;;;;;2.81;59.78;94447.75;2615356;54;20413;-76
2022/03/08 20:39:14;;;;;;;2.40;2.03;;;;;;;3.19;64.97;94456.84;2615360;54;20164;-76
2022/03/08 20:41:45;;;;;;;5.60;4.43;;;;;;;3.65;57.05;94446.78;2615777;54;20499;-80
2022/03/08 20:44:13;;;;;;;1.93;1.93;;;;;;;3.97;57.16;94445.00;2615700;47;20155;-78
2022/03/08 20:46:43;;;;;;;6.73;4.27;;;;;;;4.06;57.50;94422.41;2615785;54;20224;-78
2022/03/08 20:49:11;;;;;;;1.77;1.67;;;;;;;3.37;56.04;94361.97;2616275;39;20505;-78
2022/03/08 20:51:40;;;;;;;2.87;2.53;;;;;;;4.28;59.19;94443.19;2615738;54;20200;-77
2022/03/08 20:54:09;;;;;;;7.57;5.45;;;;;;;4.86;62.83;94446.81;2615602;47;20565;-79
2022/03/08 20:56:40;;;;;;;3.47;2.90;;;;;;;5.16;56.55;94434.28;2615827;47;20141;-76
2022/03/08 20:59:11;;;;;;;3.60;3.40;;;;;;;4.37;56.41;94429.59;2615865;47;20156;-77
2022/03/08 21:01:40;;;;;;;12.03;2.00;;;;;;;3.39;52.82;94446.06;2615780;47;20145;-77
2022/03/08 21:04:09;;;;;;;2.17;2.00;;;;;;;3.63;62.04;94399.81;2615035;54;20680;-77
2022/03/08 21:06:38;;;;;;;2.77;2.60;;;;;;;3.92;57.39;94449.69;2615646;54;20173;-77
2022/03/08 21:09:07;;;;;;;2.67;2.57;;;;;;;3.16;54.18;94427.28;2615675;47;20153;-78
2022/03/08 21:11:36;;;;;;;2.20;2.10;;;;;;;3.04;54.31;94440.59;2616108;46;20183;-76
2022/03/08 21:14:08;;;;;;;1.20;1.20;;;;;;;2.24;54.04;94445.75;2615577;54;20386;-76
2022/03/08 21:16:37;;;;;;;3.33;3.23;;;;;;;1.62;59.77;94423.88;2615685;47;20713;-79
2022/03/08 21:19:06;;;;;;;3.63;3.33;;;;;;;3.14;63.98;94439.09;2615317;54;20388;-77
2022/03/08 21:21:35;;;;;;;1.83;1.73;;;;;;;3.80;63.10;94435.75;2615769;54;20765;-77
2022/03/08 21:24:03;;;;;;;1.63;1.63;;;;;;;4.46;60.19;94435.00;2615749;54;20706;-77
2022/03/08 21:26:32;;;;;;;1.67;1.67;;;;;;;3.86;58.13;94382.09;2615463;54;20744;-80
2022/03/08 21:29:01;;;;;;;4.35;3.63;;;;;;;4.76;60.93;94438.63;2615882;31;20867;-78
2022/03/08 21:31:32;;;;;;;4.70;2.47;;;;;;;3.82;57.25;94345.50;2615956;39;20524;-78
2022/03/08 21:34:03;;;;;;;1.77;1.77;;;;;;;4.07;59.53;94428.75;2615575;54;20673;-79
2022/03/08 21:36:32;;;;;;;3.50;3.30;;;;;;;4.24;61.97;94414.19;2615676;54;20157;-75
2022/03/08 21:39:01;;;;;;;1.00;1.00;;;;;;;3.71;54.77;94388.28;2615802;54;20184;-78
2022/03/08 21:41:30;;;;;;;4.77;3.80;;;;;;;4.86;63.61;94429.97;2615767;51;20165;-80
2022/03/08 21:43:58;;;;;;;2.53;2.33;;;;;;;3.42;56.25;94434.34;2615595;47;20160;-79
2022/03/08 21:46:27;;;;;;;1.70;1.33;;;;;;;3.25;56.94;94373.25;2615551;47;20157;-76
2022/03/08 21:49:00;;;;;;;1.97;1.83;;;;;;;3.66;59.24;94420.25;2615337;47;20163;-77
2022/03/08 21:51:30;;;;;;;1.47;1.03;;;;;;;2.84;56.54;94421.34;2615569;47;20160;-77
2022/03/08 21:53:59;;;;;;;1.67;1.67;;;;;;;3.05;62.00;94384.03;2615696;47;20157;-80
2022/03/08 21:56:30;;;;;;;2.57;2.47;;;;;;;1.60;61.78;94225.56;2615108;54;20155;-80
2022/03/08 21:59:00;;;;;;;0.87;0.87;;;;;;;3.17;56.60;94425.97;2615503;47;20162;-77
2022/03/08 22:01:32;;;;;;;1.13;1.13;;;;;;;3.44;59.87;94412.06;2615306;47;20156;-78
2022/03/08 22:04:05;;;;;;;2.43;2.23;;;;;;;3.14;55.32;94424.41;2615154;47;20145;-76
2022/03/08 22:06:34;;;;;;;3.07;2.87;;;;;;;3.46;64.98;94369.47;2615488;47;20163;-75
2022/03/08 22:09:03;;;;;;;10.57;2.72;;;;;;;2.82;55.29;94356.91;2615695;54;20392;-76
2022/03/08 22:11:35;;;;;;;2.57;2.47;;;;;;;3.36;56.05;94425.63;2616170;39;20633;-78
2022/03/08 22:14:03;;;;;;;3.17;3.07;;;;;;;4.39;64.19;94429.69;2615655;54;20183;-79
2022/03/08 22:16:32;;;;;;;2.93;2.80;;;;;;;4.86;66.33;94419.47;2615503;54;20187;-81
2022/03/08 22:19:01;;;;;;;2.20;2.10;;;;;;;4.29;53.66;94419.41;2615371;47;20252;-81
2022/03/08 22:21:34;;;;;;;2.57;2.40;;;;;;;4.88;62.11;94405.56;2615689;47;20161;-75
2022/03/08 22:24:03;;;;;;;3.10;2.90;;;;;;;4.11;59.85;94379.22;2615584;54;20157;-74
2022/03/08 22:26:31;;;;;;;3.97;3.70;;;;;;;3.56;59.85;94417.59;2615384;54;20145;-76
2022/03/08 22:29:00;;;;;;;2.73;2.57;;;;;;;2.71;55.85;94390.50;2615483;39;20501;-77
2022/03/08 22:31:29;;;;;;;3.83;3.50;;;;;;;3.46;61.32;94417.06;2614940;54;20157;-75
2022/03/08 22:33:58;;;;;;;2.23;2.13;;;;;;;3.54;56.93;94414.72;2615166;47;20153;-76
2022/03/08 22:36:28;;;;;;;1.67;1.57;;;;;;;3.51;56.23;94422.28;2615386;39;20766;-77
2022/03/08 22:38:59;;;;;;;2.00;1.97;;;;;;;3.11;58.95;94420.75;2615222;47;20201;-77
2022/03/08 22:41:28;;;;;;;2.43;2.33;;;;;;;1.30;59.80;94381.47;2615381;47;20775;-77
2022/03/08 22:43:57;;;;;;;1.40;1.40;;;;;;;1.69;60.94;94426.41;2615577;54;20161;-82
2022/03/08 22:46:27;;;;;;;2.03;1.70;;;;;;;2.11;64.09;94399.59;2615561;54;20180;-79
2022/03/08 22:48:55;;;;;;;2.60;2.40;;;;;;;2.23;67.53;94394.00;2615363;47;20153;-77
2022/03/08 22:54:07;;;;;;;2.10;2.07;;;;;;;1.85;63.19;94370.84;2615121;47;20156;-77
2022/03/08 22:56:36;;;;;;;1.60;1.60;;;;;;;2.45;63.03;94415.59;2605632;54;20176;-76
2022/03/08 22:59:05;;;;;;;3.27;2.27;;;;;;;3.14;62.50;94422.31;2615129;47;20165;-78
2022/03/08 23:01:34;;;;;;;0.40;0.40;;;;;;;2.57;61.63;94342.16;2615248;47;20160;-78
2022/03/08 23:04:02;;;;;;;3.90;3.57;;;;;;;2.54;65.26;94402.09;2615084;54;20153;-77
2022/03/08 23:06:31;;;;;;;1.90;1.77;;;;;;;1.34;60.86;94339.88;2615298;47;20153;-78
2022/03/08 23:08:59;;;;;;;4.03;3.83;;;;;;;2.58;70.37;94346.41;2614986;54;20268;-79
2022/03/08 23:11:31;;;;;;;2.10;2.07;;;;;;;2.88;65.42;94406.13;2615205;54;20617;-79
2022/03/08 23:14:00;;;;;;;3.40;1.80;;;;;;;2.94;60.20;94395.28;2615482;54;20158;-80
2022/03/08 23:16:28;;;;;;;3.70;3.47;;;;;;;3.28;62.38;94396.47;2615480;47;20152;-80
2022/03/08 23:18:57;;;;;;;3.37;2.60;;;;;;;2.99;63.45;94397.72;2615345;47;20157;-80
2022/03/08 23:21:26;;;;;;;1.83;1.83;;;;;;;3.01;63.09;94360.69;2615738;47;20167;-78
2022/03/08 23:23:55;;;;;;;0.70;0.70;;;;;;;2.73;59.47;94419.28;2615465;47;20269;-79
2022/03/08 23:26:23;;;;;;;1.53;1.53;;;;;;;2.09;60.72;94425.34;2615428;54;20245;-80
2022/03/08 23:28:55;;;;;;;2.83;2.73;;;;;;;2.47;66.37;94407.31;2614838;54;20157;-80
2022/03/08 23:31:23;;;;;;;2.33;2.17;;;;;;;0.64;62.39;94211.50;2615032;47;20157;-78
2022/03/08 23:33:52;;;;;;;2.30;2.17;;;;;;;1.75;62.35;94392.56;2615451;47;20161;-78
2022/03/08 23:36:21;;;;;;;2.73;2.53;;;;;;;1.96;64.75;94412.00;2615270;54;20165;-79
2022/03/08 23:38:49;;;;;;;2.50;2.37;;;;;;;1.77;66.99;94418.56;2614741;54;20164;-78
2022/03/08 23:41:19;;;;;;;0.50;0.50;;;;;;;1.09;61.18;94392.69;2615573;47;21070;-78
2022/03/08 23:43:48;;;;;;;1.87;1.77;;;;;;;1.66;65.38;94387.81;2615689;47;20153;-77
2022/03/08 23:46:19;;;;;;;2.30;2.20;;;;;;;0.37;63.00;94233.47;2615328;47;20153;-79
2022/03/08 23:48:47;;;;;;;1.57;1.43;;;;;;;2.47;66.35;94418.50;2615753;39;20595;-79
2022/03/08 23:51:16;;;;;;;1.53;1.43;;;;;;;2.29;61.99;94419.50;2615663;54;20157;-78
2022/03/08 23:53:45;;;;;;;2.53;2.43;;;;;;;2.81;66.57;94355.44;2615898;39;20668;-81
2022/03/08 23:56:17;;;;;;;0.93;0.93;;;;;;;3.11;61.08;94425.63;2615222;54;20877;-80
2022/03/08 23:58:46;;;;;;;3.73;3.60;;;;;;;1.51;59.31;94360.38;2615304;47;20289;-79
